Aviation Digital Data Service (ADDS)

Output produced by METARs form (2336 UTC 18 December 2018)
found at http://aviationweather.gov/metar/data/
 
METAR text: EDDS 182320Z 23003KT CAVOK M03/M04 Q1017
Conditions at: EDDS (STUTTGART/ECHTER, DE) observed 2320 UTC 18 December 2018
Temperature: -3.0°C (27°F)
Dewpoint: -4.0°C (25°F) [RH = 93%]
Pressure (altimeter): 30.03 inches Hg (1017.0 mb)
Winds: from the SW (230 degrees) at 3 MPH (3 knots; 1.5 m/s)
Visibility: 6 or more miles (10+ km)
Ceiling: ceiling and visibility are OK
Clouds: unknown
Weather: no significant weather observed at this time

Forecast for: EDDS (STUTTGART/ECHTER, DE)
Text: TAF EDDS 182300Z 1900/1924 19004KT CAVOK
Forecast period: 0000 UTC 19 December 2018 to 0000 UTC 20 December 2018
Forecast type: FROM: standard forecast or significant change
Winds: from the S (190 degrees) at 5 MPH (4 knots; 2.1 m/s)
Visibility: 6 or more miles 10+ km)
Ceiling: unknown
Clouds: missing
Weather: NSW  (no significant weather)
Text: PROB30
Forecast period: 1600 to 1900 UTC 19 December 2018
Forecast type: TEMPORARY: The following changes expected for less than half the time period
Visibility: 2.49 miles (4.01 km)
Ceiling: 2500 feet AGL
Clouds: broken clouds at 2500 feet AGL
Weather: SHRA  (rain showers)